首页
METAR-TAF:

METAR-TAF

机场 :

Branch County Memorial Airport

科尔德沃特, 密歇根州, 美国

纬度: 41-56N, 经度: 085-03-09W, 海拔: 292米

当前天气观测

该预报发布于21分钟前的14:35 UTC
静风
温度 3°C
湿度 87%
气压 1022 hPa
能見度: 4.8公里
阴天层高于2600英尺
轻雾

METAR: KOEB 201435Z AUTO 00000KT 3SM BR OVC026 03/01 A3018 RMK AO2 T00250012

时间: 09:56 (14:56 UTC)


TAF: 丢失

超过4000个机场的气象观测和天气预报(METAR&TAF报告)。

可查询的气象台以黄色和红色小点在地图上表示。

将鼠标移到小点上方,可查看气象台名称。

然后点击查看天气观测和预报。

如需切换地图:点击带黑十字的绿色按钮放大地图;点击带横线的绿色按钮缩小地图;或者点击绿色箭头查看邻近地区的地图。


METAR-TAF: